createdAt,value
2017-11-12T00:00:07.280Z,10.67
2017-11-12T00:02:33.220Z,10.65
2017-11-12T00:04:59.153Z,10.80
2017-11-12T00:07:25.104Z,10.59
2017-11-12T00:09:51.068Z,10.56
2017-11-12T00:12:17.075Z,10.64
2017-11-12T00:14:43.012Z,10.58
2017-11-12T00:17:08.948Z,10.63
2017-11-12T00:19:34.884Z,10.76
2017-11-12T00:22:00.824Z,10.67
2017-11-12T00:24:26.753Z,10.59
2017-11-12T00:26:52.713Z,10.41
2017-11-12T00:29:18.672Z,10.44
2017-11-12T00:31:44.668Z,10.52
2017-11-12T00:34:10.618Z,10.16
2017-11-12T00:36:36.557Z,10.29
2017-11-12T00:39:02.484Z,10.39
2017-11-12T00:41:28.422Z,10.62
2017-11-12T00:43:54.462Z,10.40
2017-11-12T00:46:20.402Z,10.41
2017-11-12T00:48:46.372Z,10.13
2017-11-12T00:51:12.292Z,10.36
2017-11-12T00:53:38.220Z,10.48
2017-11-12T00:56:04.142Z,10.37
2017-11-12T00:58:30.104Z,10.34
2017-11-12T01:00:56.038Z,10.41
2017-11-12T01:03:21.973Z,10.46
2017-11-12T01:05:47.906Z,10.48
2017-11-12T01:08:13.832Z,10.28
2017-11-12T01:10:39.770Z,10.59
2017-11-12T01:13:05.706Z,10.69
2017-11-12T01:15:31.778Z,10.63
2017-11-12T01:17:57.728Z,10.68
2017-11-12T01:20:23.656Z,10.44
2017-11-12T01:22:49.618Z,10.35
2017-11-12T01:25:15.550Z,10.31
2017-11-12T01:27:41.494Z,10.29
2017-11-12T01:30:07.420Z,10.53
2017-11-12T01:32:33.376Z,10.20
2017-11-12T01:34:59.308Z,10.36
2017-11-12T01:37:25.238Z,10.63
2017-11-12T01:39:51.168Z,10.54
2017-11-12T01:42:17.114Z,10.38
2017-11-12T01:44:43.064Z,10.43
2017-11-12T01:47:08.984Z,10.67
2017-11-12T01:49:34.940Z,10.70
2017-11-12T01:52:00.871Z,10.50
2017-11-12T01:54:26.808Z,10.29
2017-11-12T01:56:52.763Z,10.51
2017-11-12T01:59:18.697Z,10.45
2017-11-12T02:01:44.620Z,10.41
2017-11-12T02:04:10.572Z,10.33
2017-11-12T02:06:36.510Z,10.29
2017-11-12T02:09:02.454Z,10.29
2017-11-12T02:11:28.388Z,10.39
2017-11-12T02:13:54.352Z,10.32
2017-11-12T02:16:20.299Z,10.35
2017-11-12T02:18:46.239Z,10.36
2017-11-12T02:21:12.192Z,10.40
2017-11-12T02:23:38.143Z,10.36
2017-11-12T02:26:04.116Z,10.57
2017-11-12T02:28:30.116Z,10.59
2017-11-12T02:30:56.049Z,10.20
2017-11-12T02:33:21.996Z,10.14
2017-11-12T02:35:47.947Z,9.89
2017-11-12T02:38:13.884Z,9.79
2017-11-12T02:40:39.844Z,10.04
2017-11-12T02:43:05.771Z,10.36
2017-11-12T02:45:31.691Z,10.34
2017-11-12T02:47:57.619Z,10.29
2017-11-12T02:50:23.571Z,10.19
2017-11-12T02:52:49.511Z,10.08
2017-11-12T02:55:15.450Z,10.23
2017-11-12T02:57:41.384Z,10.19
2017-11-12T03:00:07.351Z,10.11
2017-11-12T03:02:33.273Z,9.98
2017-11-12T03:04:59.198Z,10.20
2017-11-12T03:07:25.138Z,9.93
2017-11-12T03:09:51.086Z,10.27
2017-11-12T03:12:17.041Z,9.84
2017-11-12T03:14:42.990Z,10.10
2017-11-12T03:17:08.942Z,9.97
2017-11-12T03:19:34.875Z,10.25
2017-11-12T03:22:00.819Z,10.13
2017-11-12T03:24:26.755Z,9.89
2017-11-12T03:26:52.690Z,10.05
2017-11-12T03:29:18.644Z,9.96
2017-11-12T03:31:44.572Z,10.03
2017-11-12T03:34:10.520Z,9.96
2017-11-12T03:36:36.472Z,10.00
2017-11-12T03:39:02.423Z,9.81
2017-11-12T03:41:28.358Z,9.98
2017-11-12T03:43:54.303Z,9.86
2017-11-12T03:46:20.250Z,9.82
2017-11-12T03:48:46.227Z,9.78
2017-11-12T03:51:12.190Z,9.89
2017-11-12T03:53:38.147Z,9.97
2017-11-12T03:56:04.088Z,9.89
2017-11-12T03:58:30.024Z,9.85
2017-11-12T04:00:55.951Z,9.77
2017-11-12T04:03:21.914Z,9.65
2017-11-12T04:05:47.873Z,9.73
2017-11-12T04:08:13.821Z,9.78
2017-11-12T04:10:39.750Z,9.88
2017-11-12T04:13:05.695Z,9.51
2017-11-12T04:15:31.630Z,9.49
2017-11-12T04:17:57.561Z,9.56
2017-11-12T04:20:23.484Z,9.41
2017-11-12T04:22:49.423Z,9.52
2017-11-12T04:25:15.363Z,9.62
2017-11-12T04:27:41.312Z,9.66
2017-11-12T04:30:07.232Z,9.54
2017-11-12T04:32:33.156Z,9.51
2017-11-12T04:34:59.095Z,9.44
2017-11-12T04:37:25.028Z,9.39
2017-11-12T04:39:50.985Z,9.30
2017-11-12T04:42:16.924Z,9.45
2017-11-12T04:44:42.853Z,9.49
2017-11-12T04:47:08.807Z,9.40
2017-11-12T04:49:34.737Z,9.43
2017-11-12T04:52:00.663Z,9.35
2017-11-12T04:54:26.616Z,9.13
2017-11-12T04:56:52.556Z,9.24
2017-11-12T04:59:18.495Z,9.29
2017-11-12T05:01:44.451Z,9.24
2017-11-12T05:04:10.378Z,9.38
2017-11-12T05:06:36.304Z,9.36
2017-11-12T05:09:02.243Z,9.30
2017-11-12T05:11:28.214Z,9.32
2017-11-12T05:13:54.167Z,9.08
2017-11-12T05:16:20.208Z,9.25
2017-11-12T05:18:46.143Z,9.17
2017-11-12T05:21:12.064Z,9.12
2017-11-12T05:23:37.985Z,9.12
2017-11-12T05:26:03.967Z,9.05
2017-11-12T05:28:29.913Z,9.21
2017-11-12T05:30:55.843Z,9.12
2017-11-12T05:33:21.816Z,9.28
2017-11-12T05:35:47.773Z,9.16
2017-11-12T05:38:13.741Z,8.68
2017-11-12T05:40:39.696Z,8.91
2017-11-12T05:43:05.619Z,9.15
2017-11-12T05:45:31.566Z,9.10
2017-11-12T05:47:57.525Z,8.96
2017-11-12T05:50:23.468Z,9.09
2017-11-12T05:52:49.409Z,9.16
2017-11-12T05:55:15.343Z,9.18
2017-11-12T05:57:41.310Z,9.21
2017-11-12T06:00:07.241Z,8.99
2017-11-12T06:02:33.201Z,9.08
2017-11-12T06:04:59.149Z,8.78
2017-11-12T06:07:25.140Z,8.65
2017-11-12T06:09:51.189Z,8.36
2017-11-12T06:12:17.112Z,8.23
2017-11-12T06:14:43.053Z,8.27
2017-11-12T06:17:08.992Z,8.01
2017-11-12T06:19:34.927Z,8.13
2017-11-12T06:22:00.868Z,8.19
2017-11-12T06:24:26.808Z,8.49
2017-11-12T06:26:52.729Z,8.51
2017-11-12T06:29:18.699Z,8.60
2017-11-12T06:31:44.647Z,8.64
2017-11-12T06:34:10.658Z,8.67
2017-11-12T06:36:36.615Z,8.88
2017-11-12T06:39:02.583Z,8.86
2017-11-12T06:41:28.531Z,8.96
2017-11-12T06:43:54.512Z,9.04
2017-11-12T06:46:20.453Z,9.01
2017-11-12T06:48:46.386Z,9.05
2017-11-12T06:51:12.335Z,9.08
2017-11-12T06:53:38.288Z,9.00
2017-11-12T06:56:04.228Z,8.97
2017-11-12T06:58:30.179Z,9.18
2017-11-12T07:00:56.121Z,9.15
2017-11-12T07:03:22.098Z,9.03
2017-11-12T07:05:48.090Z,9.12
2017-11-12T07:08:14.107Z,9.27
2017-11-12T07:10:40.063Z,9.27
2017-11-12T07:13:06.003Z,9.32
2017-11-12T07:15:31.971Z,9.28
2017-11-12T07:17:57.897Z,9.20
2017-11-12T07:20:23.873Z,9.28
2017-11-12T07:22:49.796Z,9.33
2017-11-12T07:25:15.779Z,9.40
2017-11-12T07:27:41.750Z,9.35
2017-11-12T07:30:07.767Z,9.24
2017-11-12T07:32:33.713Z,9.38
2017-11-12T07:34:59.665Z,9.52
2017-11-12T07:37:26.261Z,9.62
2017-11-12T07:39:52.233Z,9.67
2017-11-12T07:42:18.290Z,9.52
2017-11-12T07:44:44.220Z,9.62
2017-11-12T07:47:10.187Z,9.60
2017-11-12T07:49:36.169Z,9.77
2017-11-12T07:52:02.115Z,9.86
2017-11-12T07:54:28.067Z,9.88
2017-11-12T07:56:54.006Z,9.91
2017-11-12T07:59:19.936Z,9.82
2017-11-12T08:01:45.875Z,9.92
2017-11-12T08:04:11.816Z,9.86
2017-11-12T08:06:37.881Z,9.85
2017-11-12T08:09:03.902Z,9.67
2017-11-12T08:11:29.853Z,9.79
2017-11-12T08:13:55.807Z,9.78
2017-11-12T08:16:21.753Z,10.00
2017-11-12T08:18:47.687Z,10.02
2017-11-12T08:21:13.637Z,10.22
2017-11-12T08:23:39.660Z,10.28
2017-11-12T08:26:05.599Z,10.27
2017-11-12T08:28:31.555Z,10.34
2017-11-12T08:30:57.497Z,10.35
2017-11-12T08:33:23.461Z,10.33
2017-11-12T08:35:49.397Z,10.44
2017-11-12T08:38:15.357Z,10.38
2017-11-12T08:40:41.303Z,10.52
2017-11-12T08:43:07.270Z,10.38
2017-11-12T08:45:33.259Z,10.21
2017-11-12T08:47:59.399Z,10.18
2017-11-12T08:50:25.399Z,10.31
2017-11-12T08:52:51.383Z,10.44
2017-11-12T08:55:17.367Z,10.47
2017-11-12T08:57:43.308Z,10.38
2017-11-12T09:00:09.259Z,10.37
2017-11-12T09:02:35.210Z,10.34
2017-11-12T09:05:01.189Z,10.35
2017-11-12T09:07:27.212Z,10.58
2017-11-12T09:09:53.165Z,10.33
2017-11-12T09:12:19.105Z,10.26
2017-11-12T09:14:45.051Z,10.48
2017-11-12T09:17:11.006Z,10.37
2017-11-12T09:19:36.967Z,10.31
2017-11-12T09:22:03.098Z,10.49
2017-11-12T09:24:29.086Z,10.64
2017-11-12T09:26:55.043Z,10.54
2017-11-12T09:29:21.068Z,10.57
2017-11-12T09:31:47.039Z,10.67
2017-11-12T09:34:13.004Z,10.72
2017-11-12T09:36:38.952Z,10.78
2017-11-12T09:39:04.899Z,10.83
2017-11-12T09:41:30.917Z,10.85
2017-11-12T09:43:56.890Z,10.82
2017-11-12T09:46:22.824Z,10.77
2017-11-12T09:48:48.792Z,10.55
2017-11-12T09:51:14.746Z,10.68
2017-11-12T09:53:40.681Z,10.56
2017-11-12T09:56:06.803Z,10.70
2017-11-12T09:58:32.768Z,10.58
2017-11-12T10:00:58.721Z,10.51
2017-11-12T10:03:24.673Z,10.87
2017-11-12T10:05:50.600Z,10.85
2017-11-12T10:08:16.533Z,10.81
2017-11-12T10:10:42.480Z,10.75
2017-11-12T10:13:08.435Z,10.75
2017-11-12T10:15:34.389Z,10.79
2017-11-12T10:18:00.326Z,11.00
2017-11-12T10:20:26.260Z,11.01
2017-11-12T10:22:52.213Z,11.04
2017-11-12T10:25:21.167Z,11.03
2017-11-12T10:27:47.116Z,11.00
2017-11-12T10:30:13.048Z,11.10
2017-11-12T10:32:38.986Z,11.18
2017-11-12T10:35:04.920Z,11.00
2017-11-12T10:37:30.889Z,11.16
2017-11-12T10:39:56.852Z,11.26
2017-11-12T10:42:22.812Z,11.18
2017-11-12T10:44:48.768Z,11.04
2017-11-12T10:47:14.760Z,10.92
2017-11-12T10:49:40.750Z,11.07
2017-11-12T10:52:06.750Z,10.91
2017-11-12T10:54:32.719Z,10.88
2017-11-12T10:56:58.684Z,10.97
2017-11-12T10:59:24.640Z,11.04
2017-11-12T11:01:50.593Z,11.09
2017-11-12T11:04:16.553Z,11.14
2017-11-12T11:06:42.486Z,11.00
2017-11-12T11:09:08.642Z,10.99
2017-11-12T11:11:34.596Z,11.03
2017-11-12T11:14:00.542Z,10.95
2017-11-12T11:16:26.476Z,10.85
2017-11-12T11:18:52.405Z,10.90
2017-11-12T11:21:18.450Z,10.99
2017-11-12T11:23:44.538Z,10.97
2017-11-12T11:26:10.553Z,10.94
2017-11-12T11:28:36.555Z,11.02
2017-11-12T11:31:02.790Z,10.77
2017-11-12T11:33:28.775Z,10.67
2017-11-12T11:35:55.674Z,10.60
2017-11-12T11:38:21.650Z,10.49
2017-11-12T11:40:47.596Z,10.52
2017-11-12T11:43:13.566Z,10.60
2017-11-12T11:45:39.509Z,10.73
2017-11-12T11:48:05.464Z,10.62
2017-11-12T11:50:31.506Z,10.76
2017-11-12T11:52:57.744Z,10.43
2017-11-12T11:55:23.728Z,10.75
2017-11-12T11:57:49.765Z,10.87
2017-11-12T12:00:15.725Z,10.78
2017-11-12T12:02:41.668Z,10.58
2017-11-12T12:05:07.613Z,10.70
2017-11-12T12:07:33.570Z,10.66
2017-11-12T12:09:59.594Z,10.68
2017-11-12T12:12:25.549Z,10.51
2017-11-12T12:14:51.493Z,10.41
2017-11-12T12:17:17.442Z,10.70
2017-11-12T12:19:43.374Z,10.56
2017-11-12T12:22:09.308Z,10.56
2017-11-12T12:24:35.235Z,10.71
2017-11-12T12:27:01.290Z,10.55
2017-11-12T12:29:27.304Z,10.49
2017-11-12T12:31:53.271Z,10.50
2017-11-12T12:34:19.367Z,10.56
2017-11-12T12:36:45.319Z,10.68
2017-11-12T12:39:11.256Z,10.71
2017-11-12T12:41:37.179Z,10.48
2017-11-12T12:44:03.132Z,10.48
2017-11-12T12:46:29.232Z,10.60
2017-11-12T12:48:55.178Z,10.42
2017-11-12T12:51:21.170Z,10.46
2017-11-12T12:53:47.168Z,10.61
2017-11-12T12:56:13.121Z,10.63
2017-11-12T12:58:39.130Z,10.52
2017-11-12T13:01:05.096Z,10.29
2017-11-12T13:03:31.142Z,10.51
2017-11-12T13:05:57.133Z,10.70
2017-11-12T13:08:23.100Z,10.47
2017-11-12T13:10:49.040Z,10.49
2017-11-12T13:13:14.986Z,10.29
2017-11-12T13:15:40.949Z,10.33
2017-11-12T13:18:06.884Z,10.40
2017-11-12T13:20:32.834Z,10.22
2017-11-12T13:22:58.817Z,10.28
2017-11-12T13:25:24.802Z,10.19
2017-11-12T13:27:50.878Z,10.22
2017-11-12T13:30:16.848Z,10.45
2017-11-12T13:32:42.800Z,10.40
2017-11-12T13:35:08.799Z,10.20
2017-11-12T13:37:34.771Z,10.22
2017-11-12T13:40:00.736Z,10.21
2017-11-12T13:42:26.767Z,10.06
2017-11-12T13:44:52.728Z,10.11
2017-11-12T13:47:18.673Z,10.19
2017-11-12T13:49:44.634Z,10.04
2017-11-12T13:52:10.650Z,10.06
2017-11-12T13:54:36.658Z,10.08
2017-11-12T13:57:02.583Z,10.14
2017-11-12T13:59:28.523Z,10.12
2017-11-12T14:01:54.476Z,10.12
2017-11-12T14:04:20.425Z,9.88
2017-11-12T14:06:46.353Z,9.70
2017-11-12T14:09:12.320Z,9.85
2017-11-12T14:11:38.233Z,9.81
2017-11-12T14:14:04.197Z,9.92
2017-11-12T14:16:30.128Z,10.00
2017-11-12T14:18:56.074Z,9.81
2017-11-12T14:21:22.015Z,9.79
2017-11-12T14:23:47.988Z,9.77
2017-11-12T14:26:13.926Z,9.77
2017-11-12T14:28:39.877Z,9.79
2017-11-12T14:31:05.838Z,9.70
2017-11-12T14:33:31.810Z,9.77
2017-11-12T14:35:57.742Z,9.84
2017-11-12T14:38:23.665Z,9.97
2017-11-12T14:40:49.620Z,10.16
2017-11-12T14:43:15.555Z,10.28
2017-11-12T14:45:41.566Z,10.10
2017-11-12T14:48:07.537Z,9.76
2017-11-12T14:50:33.573Z,10.08
2017-11-12T14:52:59.578Z,10.08
2017-11-12T14:55:25.522Z,10.15
2017-11-12T14:57:51.459Z,9.78
2017-11-12T15:00:17.451Z,9.84
2017-11-12T15:02:43.394Z,9.79
2017-11-12T15:05:09.396Z,9.81
2017-11-12T15:07:35.304Z,9.94
2017-11-12T15:10:01.237Z,9.58
2017-11-12T15:12:27.168Z,9.44
2017-11-12T15:14:53.093Z,9.34
2017-11-12T15:17:19.065Z,9.43
2017-11-12T15:19:44.988Z,9.37
2017-11-12T15:22:10.951Z,9.35
2017-11-12T15:24:37.068Z,9.40
2017-11-12T15:27:03.108Z,9.29
2017-11-12T15:29:29.125Z,9.35
2017-11-12T15:31:55.140Z,9.55
2017-11-12T15:34:21.166Z,9.71
2017-11-12T15:36:47.145Z,9.65
2017-11-12T15:39:13.082Z,9.65
2017-11-12T15:41:39.030Z,9.89
2017-11-12T15:44:04.953Z,9.73
2017-11-12T15:46:30.893Z,9.61
2017-11-12T15:48:56.926Z,9.46
2017-11-12T15:51:22.899Z,9.52
2017-11-12T15:53:48.850Z,9.58
2017-11-12T15:56:14.854Z,9.71
2017-11-12T15:58:40.823Z,9.40
2017-11-12T16:01:06.801Z,9.41
2017-11-12T16:03:32.737Z,9.29
2017-11-12T16:05:58.702Z,9.26
2017-11-12T16:08:24.684Z,9.30
2017-11-12T16:10:50.651Z,9.15
2017-11-12T16:13:16.622Z,9.07
2017-11-12T16:15:42.586Z,9.19
2017-11-12T16:18:08.522Z,9.22
2017-11-12T16:20:34.490Z,9.27
2017-11-12T16:23:00.425Z,9.21
2017-11-12T16:25:26.366Z,9.12
2017-11-12T16:27:52.357Z,9.02
2017-11-12T16:30:18.290Z,8.94
2017-11-12T16:32:44.228Z,9.08
2017-11-12T16:35:10.146Z,9.16
2017-11-12T16:37:36.196Z,9.01
2017-11-12T16:40:02.185Z,9.16
2017-11-12T16:42:28.123Z,9.21
2017-11-12T16:44:54.070Z,9.21
2017-11-12T16:47:20.008Z,9.01
2017-11-12T16:49:45.967Z,9.13
2017-11-12T16:52:11.908Z,8.93
2017-11-12T16:54:37.874Z,8.95
2017-11-12T16:57:03.846Z,9.12
2017-11-12T16:59:29.871Z,8.90
2017-11-12T17:01:55.818Z,8.88
2017-11-12T17:04:21.769Z,8.98
2017-11-12T17:06:47.726Z,8.78
2017-11-12T17:09:13.744Z,9.12
2017-11-12T17:11:39.680Z,8.91
2017-11-12T17:14:05.674Z,8.90
2017-11-12T17:16:31.625Z,8.98
2017-11-12T17:18:57.576Z,9.06
2017-11-12T17:21:23.508Z,8.89
2017-11-12T17:23:49.504Z,8.97
2017-11-12T17:26:15.446Z,8.84
2017-11-12T17:28:41.378Z,8.79
2017-11-12T17:31:07.332Z,8.87
2017-11-12T17:33:33.272Z,8.90
2017-11-12T17:35:59.221Z,8.75
2017-11-12T17:38:25.178Z,8.64
2017-11-12T17:40:51.112Z,8.38
2017-11-12T17:43:17.178Z,8.51
2017-11-12T17:45:43.124Z,8.88
2017-11-12T17:48:09.106Z,8.74
2017-11-12T17:50:35.052Z,8.67
2017-11-12T17:53:00.992Z,8.38
2017-11-12T17:55:26.956Z,8.44
2017-11-12T17:57:52.906Z,8.33
2017-11-12T18:00:18.881Z,8.42
2017-11-12T18:02:44.878Z,8.44
2017-11-12T18:05:10.806Z,8.37
2017-11-12T18:07:36.749Z,8.88
2017-11-12T18:10:02.714Z,8.87
2017-11-12T18:12:28.674Z,8.90
2017-11-12T18:14:54.663Z,8.95
2017-11-12T18:17:20.598Z,8.80
2017-11-12T18:19:46.575Z,9.23
2017-11-12T18:22:12.529Z,9.33
2017-11-12T18:24:38.494Z,8.93
2017-11-12T18:27:04.474Z,8.82
2017-11-12T18:29:30.486Z,8.94
2017-11-12T18:31:56.448Z,9.17
2017-11-12T18:34:22.459Z,9.26
2017-11-12T18:36:48.430Z,9.28
2017-11-12T18:39:14.379Z,9.26
2017-11-12T18:48:25.144Z,9.03
2017-11-12T18:50:51.357Z,9.19
2017-11-12T18:53:17.298Z,9.27
2017-11-12T18:55:43.275Z,8.94
2017-11-12T18:58:09.307Z,8.80
2017-11-12T19:00:42.692Z,9.31
2017-11-12T19:03:08.860Z,9.27
2017-11-12T19:05:34.847Z,9.04
2017-11-12T19:08:00.818Z,9.37
2017-11-12T19:10:26.791Z,9.20
2017-11-12T19:12:52.990Z,9.05
2017-11-12T19:15:18.966Z,9.23
2017-11-12T19:17:44.912Z,9.09
2017-11-12T19:20:10.847Z,9.08
2017-11-12T19:22:36.867Z,9.13
2017-11-12T19:25:02.860Z,9.07
2017-11-12T19:27:28.848Z,8.98
2017-11-12T19:29:54.792Z,8.97
2017-11-12T19:32:20.738Z,9.04
2017-11-12T19:34:46.762Z,9.28
2017-11-12T19:37:12.714Z,9.22
2017-11-12T19:39:38.678Z,9.17
2017-11-12T19:42:04.704Z,9.09
2017-11-12T19:44:30.682Z,9.21
2017-11-12T19:46:56.646Z,9.04
2017-11-12T19:49:23.732Z,9.14
2017-11-12T19:51:49.749Z,9.18
2017-11-12T19:54:15.750Z,9.08
2017-11-12T19:56:41.914Z,9.23
2017-11-12T19:59:07.864Z,9.05
2017-11-12T20:01:33.932Z,9.39
2017-11-12T20:03:59.875Z,9.60
2017-11-12T20:06:25.812Z,9.33
2017-11-12T20:08:51.796Z,9.43
2017-11-12T20:11:17.737Z,9.64
2017-11-12T20:13:43.681Z,9.65
2017-11-12T20:16:09.653Z,8.94
2017-11-12T20:18:35.607Z,9.18
2017-11-12T20:21:02.698Z,9.38
2017-11-12T20:23:28.782Z,9.68
2017-11-12T20:25:54.722Z,9.30
2017-11-12T20:28:20.690Z,8.82
2017-11-12T20:30:46.656Z,9.27
2017-11-12T20:33:12.645Z,9.37
2017-11-12T20:35:38.607Z,9.48
2017-11-12T20:38:04.572Z,9.06
2017-11-12T20:40:30.547Z,9.00
2017-11-12T20:42:56.479Z,9.39
2017-11-12T20:45:22.490Z,9.82
2017-11-12T20:47:48.436Z,9.58
2017-11-12T20:50:14.380Z,10.01
2017-11-12T20:52:40.425Z,9.59
2017-11-12T20:55:06.370Z,9.26
2017-11-12T20:57:32.349Z,9.41
2017-11-12T21:02:30.717Z,9.40
2017-11-12T21:04:58.694Z,9.22
2017-11-12T21:07:25.690Z,9.52
2017-11-12T21:09:51.658Z,9.50
2017-11-12T21:12:17.615Z,9.30
2017-11-12T21:14:43.576Z,9.11
2017-11-12T21:17:09.552Z,9.26
2017-11-12T21:19:35.525Z,9.43
2017-11-12T21:22:01.513Z,9.81
2017-11-12T21:24:27.470Z,9.39
2017-11-12T21:26:53.443Z,9.19
2017-11-12T21:29:19.441Z,9.49
2017-11-12T21:31:45.416Z,9.27
2017-11-12T21:34:11.408Z,9.23
2017-11-12T21:36:37.396Z,9.42
2017-11-12T21:39:03.374Z,9.44
2017-11-12T21:41:29.540Z,9.62
2017-11-12T21:43:55.511Z,9.37
2017-11-12T21:46:21.547Z,9.59
2017-11-12T21:48:47.476Z,9.59
2017-11-12T21:51:13.424Z,9.42
2017-11-12T21:53:39.374Z,9.31
2017-11-12T21:56:05.340Z,9.21
2017-11-12T21:58:31.301Z,9.33
2017-11-12T22:00:57.242Z,9.32
2017-11-12T22:03:23.206Z,9.08
2017-11-12T22:05:49.135Z,9.17
2017-11-12T22:08:15.114Z,9.04
2017-11-12T22:10:41.052Z,9.04
2017-11-12T22:13:07.026Z,9.12
2017-11-12T22:15:32.954Z,9.27
2017-11-12T22:17:58.900Z,9.25
2017-11-12T22:20:24.899Z,9.03
2017-11-12T22:22:50.858Z,9.10
2017-11-12T22:25:16.790Z,8.90
2017-11-12T22:27:42.762Z,9.15
2017-11-12T22:30:08.720Z,9.35
2017-11-12T22:32:34.689Z,9.07
2017-11-12T22:35:00.709Z,8.94
2017-11-12T22:37:26.662Z,8.96
2017-11-12T22:39:52.597Z,8.92
2017-11-12T22:42:18.558Z,8.87
2017-11-12T22:44:44.537Z,8.97
2017-11-12T22:47:10.493Z,9.07
2017-11-12T22:49:36.428Z,9.01
2017-11-12T22:52:02.359Z,9.19
2017-11-12T22:54:28.318Z,8.70
2017-11-12T22:56:54.256Z,8.80
2017-11-12T22:59:20.198Z,8.84
2017-11-12T23:01:46.148Z,8.70
2017-11-12T23:04:12.084Z,8.59
2017-11-12T23:06:38.016Z,8.59
2017-11-12T23:09:03.978Z,8.55
2017-11-12T23:11:30.013Z,8.48
2017-11-12T23:13:55.948Z,8.35
2017-11-12T23:16:21.931Z,8.57
2017-11-12T23:18:47.868Z,8.55
2017-11-12T23:21:13.801Z,8.65
2017-11-12T23:23:39.752Z,9.03
2017-11-12T23:26:05.729Z,8.79
2017-11-12T23:28:31.678Z,8.94
2017-11-12T23:30:57.654Z,8.54
2017-11-12T23:33:23.594Z,8.85
2017-11-12T23:35:49.562Z,8.73
2017-11-12T23:38:15.496Z,8.53
2017-11-12T23:40:41.456Z,8.76
2017-11-12T23:43:07.406Z,8.68
2017-11-12T23:45:33.350Z,8.74
2017-11-12T23:47:59.282Z,8.74
2017-11-12T23:50:25.211Z,8.79
2017-11-12T23:52:51.169Z,8.83
2017-11-12T23:55:17.110Z,8.84
2017-11-12T23:57:43.074Z,8.93
